Ellenburg, New York
Current Conditions -  °F | °C
As of 3:53 AM on Friday 24 Oct 2014 (Local Time) from KPBG Reporting Station
Light Rain Light Rain  
Wind Chill: 35°   Ceiling: 900
Heat Index: 42°   Visibility: 4mi
Dew Point: 41°   Wind: 13mph
Humidity: 96%   Direction: 340°NNW
Pressure: 29.86"   Gusts: NA
Location:  44.89°N, 73.84°W
Report Text: KPBG 240753Z AUTO 34011KT 4SM -RA BR BKN009 OVC013 06/05 A2986 RMK AO2 RAB14 CIG 007V011 SLP112 P0001 T00560050
Loading
Personal Weather Stations






























Interactive Weather Map
Tropical Storm Tracking
New forecast layout! Learn more

10-Day Weather Forecast

Advertisements
Track Severe Weather on mobile